Time;durP1;ratioP1;P1;durP2;ratioP2;P2;SDS_P1;SDS_P2;PMS_P1;PMS_P2;Temp;Humidity;BMP_temperature;BMP_pressure;BME280_temperature;BME280_humidity;BME280_pressure;Samples;Min_cycle;Max_cycle;Signal;HPM_P1;HPM_P2
2022/12/18 00:01:13;;;;;;;16.13;13.85;;;;;;;14.73;0.00;84373.06;5008486;28;20042;-70
2022/12/18 00:03:39;;;;;;;16.75;14.43;;;;;;;14.71;0.00;84378.81;5009529;28;20054;-70
2022/12/18 00:06:06;;;;;;;19.23;16.00;;;;;;;14.73;0.00;84379.00;5007989;28;20045;-70
2022/12/18 00:08:32;;;;;;;18.65;15.10;;;;;;;14.69;0.00;84378.63;5009441;28;20037;-70
2022/12/18 00:11:12;;;;;;;18.50;15.48;;;;;;;14.71;0.00;84372.88;5012071;28;20050;-73
2022/12/18 00:13:39;;;;;;;18.95;14.95;;;;;;;14.68;0.00;84379.16;5011219;28;20037;-69
2022/12/18 00:16:16;;;;;;;19.65;14.52;;;;;;;14.67;0.00;84377.72;5007451;28;20041;-72
2022/12/18 00:18:43;;;;;;;20.85;15.88;;;;;;;14.67;0.00;84382.97;5005809;28;20053;-70
2022/12/18 00:21:12;;;;;;;17.48;13.93;;;;;;;14.67;0.00;84386.31;5008328;28;20057;-72
2022/12/18 00:23:40;;;;;;;16.17;14.18;;;;;;;14.63;0.00;84383.28;5007488;28;20113;-72
2022/12/18 00:26:14;;;;;;;19.42;16.48;;;;;;;14.62;0.00;84386.44;5008341;28;20490;-70
2022/12/18 00:28:42;;;;;;;18.05;16.05;;;;;;;14.61;0.00;84385.03;5008628;28;20509;-71
2022/12/18 00:31:15;;;;;;;17.02;15.35;;;;;;;14.59;0.00;84382.94;5010144;28;20502;-70
2022/12/18 00:33:44;;;;;;;16.65;13.65;;;;;;;14.57;0.00;84396.50;4995459;28;20410;-70
2022/12/18 00:36:38;;;;;;;20.67;17.13;;;;;;;14.54;0.00;84402.75;5028904;28;20046;-72
2022/12/18 00:39:07;;;;;;;20.77;16.13;;;;;;;14.53;0.00;84398.72;4993559;28;20049;-72
2022/12/18 00:44:23;;;;;;;18.30;14.98;;;;;;;14.48;0.00;84393.63;5009356;28;20046;-71
2022/12/18 00:46:50;;;;;;;16.42;14.02;;;;;;;14.47;0.00;84400.78;4976830;28;20049;-70
2022/12/18 00:49:18;;;;;;;15.65;13.40;;;;;;;14.45;0.00;84397.25;4974743;28;20637;-70
2022/12/18 00:51:45;;;;;;;17.63;15.20;;;;;;;14.44;0.00;84396.56;4994818;28;20030;-69
2022/12/18 00:54:11;;;;;;;16.65;14.65;;;;;;;14.42;0.00;84401.63;4991709;28;20506;-70
2022/12/18 00:56:38;;;;;;;20.42;15.48;;;;;;;14.38;0.00;84401.22;5021300;28;20045;-73
2022/12/18 00:59:05;;;;;;;17.38;14.40;;;;;;;14.37;0.00;84410.31;5010892;28;20053;-70
2022/12/18 01:01:32;;;;;;;17.75;15.68;;;;;;;14.36;0.00;84414.13;4990296;28;20033;-71
2022/12/18 01:04:00;;;;;;;16.77;14.50;;;;;;;14.33;0.00;84415.84;5009628;28;20042;-72
2022/12/18 01:06:26;;;;;;;17.55;14.32;;;;;;;14.35;0.00;84417.97;5010361;28;20542;-70
2022/12/18 01:08:53;;;;;;;19.30;14.45;;;;;;;14.30;0.00;84424.72;5006079;28;20407;-71
2022/12/18 01:11:20;;;;;;;19.17;14.82;;;;;;;14.30;0.00;84422.09;4974340;28;20045;-69
2022/12/18 01:13:48;;;;;;;15.13;13.45;;;;;;;14.30;0.00;84413.56;5008634;28;20053;-71
2022/12/18 01:16:16;;;;;;;19.55;14.00;;;;;;;14.28;0.00;84413.34;5010059;28;20033;-69
2022/12/18 01:18:43;;;;;;;15.48;13.20;;;;;;;14.24;0.00;84420.81;5009269;28;20050;-71
2022/12/18 01:21:14;;;;;;;16.38;12.60;;;;;;;14.25;0.00;84427.47;5017119;23;20058;-63
2022/12/18 01:23:40;;;;;;;16.23;12.63;;;;;;;14.24;0.00;84423.44;4973057;28;20042;-63
2022/12/18 01:26:09;;;;;;;15.75;13.50;;;;;;;14.21;0.00;84414.69;5003772;28;20418;-63
2022/12/18 01:28:36;;;;;;;17.27;13.20;;;;;;;14.18;0.00;84416.41;5004728;28;20030;-63
2022/12/18 01:31:21;;;;;;;17.60;14.50;;;;;;;14.20;0.00;84418.53;5003827;28;20034;-63
2022/12/18 01:33:48;;;;;;;14.77;12.23;;;;;;;14.18;0.00;84413.78;5002539;28;20034;-64
2022/12/18 01:36:19;;;;;;;14.23;12.70;;;;;;;14.17;0.00;84422.84;4990340;28;20073;-63
2022/12/18 01:38:47;;;;;;;19.63;15.70;;;;;;;14.15;0.00;84421.97;5002876;28;20519;-63
2022/12/18 01:41:15;;;;;;;17.13;13.40;;;;;;;14.11;0.00;84417.03;5003428;28;20044;-63
2022/12/18 01:43:46;;;;;;;17.75;13.75;;;;;;;14.12;0.00;84428.91;4992887;28;20046;-64
2022/12/18 01:46:15;;;;;;;;;;;;;;;14.07;0.00;84429.03;5006950;28;20037;-64
2022/12/18 01:48:43;;;;;;;16.30;12.98;;;;;;;14.09;0.00;84427.31;5002697;28;19925;-63
2022/12/18 01:51:13;;;;;;;17.55;14.13;;;;;;;14.08;0.00;84428.53;5003471;28;20402;-63
2022/12/18 01:53:42;;;;;;;17.25;14.85;;;;;;;14.06;0.00;84433.56;5003524;28;20214;-63
2022/12/18 01:56:13;;;;;;;14.10;11.38;;;;;;;14.02;0.00;84438.38;4999105;28;20033;-63
2022/12/18 01:58:43;;;;;;;14.75;11.70;;;;;;;14.01;0.00;84444.84;5001760;28;20048;-63
2022/12/18 02:01:10;;;;;;;18.52;14.55;;;;;;;13.99;0.00;84429.66;4986717;28;20038;-63
2022/12/18 02:03:36;;;;;;;14.32;12.35;;;;;;;13.96;0.00;84422.81;5004531;28;20048;-63
2022/12/18 02:06:29;;;;;;;17.52;14.60;;;;;;;13.95;0.00;84415.47;4991024;28;20033;-63
2022/12/18 02:08:59;;;;;;;;;;;;;;;13.95;0.00;84418.09;5011283;28;20042;-63
2022/12/18 02:11:59;;;;;;;17.08;13.75;;;;;;;13.95;0.00;84423.31;5006709;28;19921;-63
2022/12/18 02:14:28;;;;;;;13.75;12.18;;;;;;;13.93;0.00;84431.69;5017737;28;20053;-64
2022/12/18 02:17:14;;;;;;;15.52;12.40;;;;;;;13.88;0.00;84432.50;5019476;28;20037;-63
2022/12/18 02:20:10;;;;;;;16.35;12.85;;;;;;;13.89;0.00;84435.84;5021244;28;20510;-63
2022/12/18 02:22:48;;;;;;;15.05;11.55;;;;;;;13.82;0.00;84437.84;5004337;28;20086;-63
2022/12/18 02:25:39;;;;;;;15.50;12.77;;;;;;;13.86;0.00;84444.69;5019458;28;20409;-63
2022/12/18 02:28:11;;;;;;;14.98;13.05;;;;;;;13.83;0.00;84443.78;4986583;28;20060;-66
2022/12/18 02:30:45;;;;;;;17.25;12.10;;;;;;;13.78;0.00;84445.28;4986721;28;20036;-63
2022/12/18 02:33:14;;;;;;;15.32;12.48;;;;;;;13.78;0.00;84453.13;4990388;28;20506;-63
2022/12/18 02:35:45;;;;;;;15.80;11.93;;;;;;;13.80;0.00;84461.19;5008745;28;20029;-63
2022/12/18 02:38:12;;;;;;;15.43;13.80;;;;;;;13.75;0.00;84450.81;4998892;28;20054;-63
2022/12/18 02:40:42;;;;;;;12.00;10.95;;;;;;;13.73;0.00;84459.16;5000182;28;20514;-63
2022/12/18 02:43:11;;;;;;;14.23;11.80;;;;;;;13.69;0.00;84450.94;5003689;28;20427;-63
2022/12/18 02:45:50;;;;;;;13.82;12.07;;;;;;;13.67;0.00;84450.06;4986333;28;20037;-63
2022/12/18 02:48:22;;;;;;;13.48;11.57;;;;;;;13.67;0.00;84450.75;5005000;28;20034;-63
2022/12/18 02:51:11;;;;;;;12.68;11.38;;;;;;;13.65;0.00;84453.88;4986106;28;20034;-63
2022/12/18 02:53:42;;;;;;;14.00;10.20;;;;;;;13.65;0.00;84453.88;4998856;28;20809;-63
2022/12/18 02:56:32;;;;;;;14.77;12.15;;;;;;;13.64;0.00;84454.38;5021031;28;20041;-63
2022/12/18 02:59:01;;;;;;;13.95;11.43;;;;;;;13.63;0.00;84450.34;5003886;28;20054;-63
2022/12/18 03:01:58;;;;;;;14.15;10.93;;;;;;;13.62;0.00;84454.19;4992400;28;20044;-63
2022/12/18 03:05:02;;;;;;;11.35;10.13;;;;;;;13.57;0.00;84447.84;4977730;28;20034;-63
2022/12/18 03:07:39;;;;;;;12.52;11.32;;;;;;;13.54;0.00;84443.63;4968284;28;20426;-63
2022/12/18 03:10:15;;;;;;;17.10;10.40;;;;;;;13.54;0.00;84441.00;4986353;28;20430;-63
2022/12/18 03:12:52;;;;;;;17.17;12.70;;;;;;;13.56;0.00;84440.50;4987293;28;20041;-63
2022/12/18 03:15:25;;;;;;;11.25;10.05;;;;;;;13.50;0.00;84453.69;5015824;28;20038;-63
2022/12/18 03:18:06;;;;;;;12.98;10.93;;;;;;;13.49;0.00;84456.78;5002427;28;20521;-63
2022/12/18 03:20:35;;;;;;;14.02;11.43;;;;;;;13.45;0.00;84460.41;5009026;28;20037;-63
2022/12/18 03:23:09;;;;;;;12.82;10.80;;;;;;;13.46;0.00;84454.00;4998069;28;20089;-63
2022/12/18 03:25:39;;;;;;;13.13;10.73;;;;;;;13.44;0.00;84450.47;5002140;28;20434;-63
2022/12/18 03:28:11;;;;;;;15.35;11.63;;;;;;;13.42;0.00;84461.41;4986413;28;20033;-63
2022/12/18 03:30:41;;;;;;;14.48;12.65;;;;;;;13.40;0.00;84470.97;4985876;28;20041;-63
2022/12/18 03:33:39;;;;;;;14.05;10.32;;;;;;;13.40;0.00;84469.06;5000600;28;20036;-63
2022/12/18 03:36:05;;;;;;;12.98;10.27;;;;;;;13.39;0.00;84475.50;4985418;28;20515;-63
2022/12/18 03:38:33;;;;;;;14.70;11.55;;;;;;;13.39;0.00;84464.34;4985994;28;20042;-63
2022/12/18 03:41:14;;;;;;;10.88;9.85;;;;;;;13.38;0.00;84461.03;5006317;28;20038;-63
2022/12/18 03:45:13;;;;;;;12.38;9.88;;;;;;;13.36;0.00;84449.69;4990455;28;20037;-63
2022/12/18 03:47:58;;;;;;;11.40;10.27;;;;;;;13.33;0.00;84456.59;4876547;29;20402;-63
2022/12/18 03:50:47;;;;;;;12.77;9.52;;;;;;;13.37;0.00;84472.69;4910973;29;20036;-63
2022/12/18 03:53:22;;;;;;;14.98;10.48;;;;;;;13.35;0.00;84456.81;4984432;28;20053;-63
2022/12/18 03:55:51;;;;;;;11.73;10.40;;;;;;;13.36;0.00;84455.59;4975485;28;20033;-63
2022/12/18 03:58:23;;;;;;;11.25;9.40;;;;;;;13.34;0.00;84455.41;5009148;28;20041;-63
2022/12/18 04:01:02;;;;;;;12.85;10.10;;;;;;;13.32;0.00;84473.47;5007525;28;20043;-63
2022/12/18 04:03:32;;;;;;;14.95;11.05;;;;;;;13.31;0.00;84469.44;5010765;28;20042;-63
2022/12/18 04:06:00;;;;;;;19.10;11.10;;;;;;;13.33;0.00;84467.06;4990906;28;20053;-63
2022/12/18 04:08:28;;;;;;;14.43;10.68;;;;;;;13.27;0.00;84469.03;5013287;28;20037;-63
2022/12/18 04:11:07;;;;;;;14.88;11.05;;;;;;;13.28;0.00;84470.44;4993585;28;20037;-63
2022/12/18 04:13:38;;;;;;;13.98;9.98;;;;;;;13.28;0.00;84481.59;4979828;28;20038;-63
2022/12/18 04:16:11;;;;;;;12.35;9.63;;;;;;;13.28;0.00;84480.91;4991524;28;20045;-63
2022/12/18 04:18:40;;;;;;;12.77;10.88;;;;;;;13.28;0.00;84484.22;5017479;28;20046;-63
2022/12/18 04:21:08;;;;;;;11.57;9.05;;;;;;;13.27;0.00;84484.72;4974119;28;20033;-63
2022/12/18 04:23:37;;;;;;;12.27;9.18;;;;;;;13.27;0.00;84484.72;5007565;28;20398;-63
2022/12/18 04:26:04;;;;;;;10.63;8.70;;;;;;;13.27;0.00;84476.88;5011420;28;20041;-63
2022/12/18 04:28:40;;;;;;;10.93;9.60;;;;;;;13.24;0.00;84478.59;4981714;28;20048;-65
2022/12/18 04:31:06;;;;;;;10.85;9.75;;;;;;;13.25;0.00;84472.16;5012980;28;20037;-63
2022/12/18 04:33:35;;;;;;;9.68;8.60;;;;;;;13.24;0.00;84470.75;5012361;28;20034;-63
2022/12/18 04:36:04;;;;;;;10.55;8.98;;;;;;;13.24;0.00;84470.06;4995452;28;20073;-63
2022/12/18 04:38:33;;;;;;;10.52;9.52;;;;;;;13.23;0.00;84464.09;5012212;28;20053;-63
2022/12/18 04:41:05;;;;;;;10.13;8.95;;;;;;;13.26;0.00;84462.41;4973993;28;20045;-63
2022/12/18 04:43:32;;;;;;;13.05;9.82;;;;;;;13.23;0.00;84458.19;5028864;28;20033;-63
2022/12/18 04:46:06;;;;;;;12.65;9.32;;;;;;;13.21;0.00;84466.53;5021703;28;20034;-64
2022/12/18 04:48:33;;;;;;;13.57;9.18;;;;;;;13.24;0.00;84465.53;4973300;28;20049;-63
2022/12/18 04:51:01;;;;;;;12.57;9.77;;;;;;;13.22;0.00;84467.22;4988058;28;20037;-63
2022/12/18 04:53:27;;;;;;;10.63;8.20;;;;;;;13.22;0.00;84467.22;5004456;28;20049;-63
2022/12/18 04:56:05;;;;;;;10.77;8.80;;;;;;;13.21;0.00;84471.75;5003905;28;20080;-64
2022/12/18 04:58:31;;;;;;;10.70;9.57;;;;;;;13.21;0.00;84469.13;5006232;28;20394;-63
2022/12/18 05:00:57;;;;;;;9.88;8.02;;;;;;;13.21;0.00;84468.44;5022146;28;20041;-63
2022/12/18 05:03:23;;;;;;;12.65;10.00;;;;;;;13.22;0.00;84467.22;5008419;28;20415;-63
2022/12/18 05:05:50;;;;;;;10.90;9.40;;;;;;;13.22;0.00;84469.84;4997547;28;20037;-63
2022/12/18 05:08:17;;;;;;;12.10;9.40;;;;;;;13.20;0.00;84477.47;5000053;28;20042;-63
2022/12/18 05:10:43;;;;;;;10.93;9.68;;;;;;;13.20;0.00;84485.31;5008212;28;20041;-63
2022/12/18 05:13:12;;;;;;;12.13;8.38;;;;;;;13.22;0.00;84488.13;5008361;28;20040;-63
2022/12/18 05:15:38;;;;;;;11.43;9.07;;;;;;;13.21;0.00;84495.25;5004756;28;20045;-63
2022/12/18 05:18:04;;;;;;;13.68;9.77;;;;;;;13.19;0.00;84499.59;5019332;28;20061;-63
2022/12/18 05:20:31;;;;;;;11.73;8.95;;;;;;;13.20;0.00;84501.72;5003158;28;20049;-63
2022/12/18 05:22:59;;;;;;;9.77;7.93;;;;;;;13.21;0.00;84497.19;4990887;28;20403;-63
2022/12/18 05:25:25;;;;;;;10.98;9.65;;;;;;;13.20;0.00;84501.00;5005707;28;20038;-63
2022/12/18 05:27:51;;;;;;;7.88;6.93;;;;;;;13.20;0.00;84501.00;4987842;28;20037;-63
2022/12/18 05:30:18;;;;;;;10.85;8.63;;;;;;;13.20;0.00;84501.00;4987264;28;20042;-63
2022/12/18 05:32:44;;;;;;;12.40;9.10;;;;;;;13.19;0.00;84510.75;4985929;28;20033;-63
2022/12/18 05:35:13;;;;;;;10.30;8.60;;;;;;;13.20;0.00;84514.06;5004611;28;20037;-63
2022/12/18 05:37:39;;;;;;;11.65;8.93;;;;;;;13.17;0.00;84507.94;4987026;28;20529;-63
2022/12/18 05:40:06;;;;;;;9.88;7.63;;;;;;;13.18;0.00;84503.41;5004081;28;20495;-63
2022/12/18 05:42:32;;;;;;;12.15;8.32;;;;;;;13.16;0.00;84508.44;5021752;28;20038;-63
2022/12/18 05:44:58;;;;;;;11.65;8.38;;;;;;;13.20;0.00;84514.06;5019224;28;20052;-63
2022/12/18 05:47:27;;;;;;;11.20;9.63;;;;;;;13.17;0.00;84513.16;5003332;28;20057;-63
2022/12/18 05:49:53;;;;;;;11.07;9.73;;;;;;;13.17;0.00;84518.38;5003604;28;20404;-63
2022/12/18 05:52:19;;;;;;;11.77;9.50;;;;;;;13.17;0.00;84509.81;5001645;28;20056;-63
2022/12/18 05:54:45;;;;;;;11.57;8.50;;;;;;;13.20;0.00;84501.72;5005954;28;20033;-63
2022/12/18 05:57:12;;;;;;;10.93;9.38;;;;;;;13.18;0.00;84498.19;4972768;28;20045;-63
2022/12/18 05:59:38;;;;;;;12.27;8.15;;;;;;;13.20;0.00;84493.16;5006026;28;20042;-63
2022/12/18 06:02:07;;;;;;;10.38;9.07;;;;;;;13.21;0.00;84494.56;5007912;28;20030;-63
2022/12/18 06:04:33;;;;;;;8.98;7.40;;;;;;;13.18;0.00;84498.19;4976221;28;20034;-63
2022/12/18 06:07:05;;;;;;;9.38;7.75;;;;;;;13.17;0.00;84499.38;4976353;28;20044;-63
2022/12/18 06:09:32;;;;;;;10.65;8.43;;;;;;;13.16;0.00;84500.59;4991672;28;20046;-63
2022/12/18 06:11:58;;;;;;;10.52;9.23;;;;;;;13.19;0.00;84500.28;5001508;28;20025;-63
2022/12/18 06:14:25;;;;;;;9.55;7.53;;;;;;;13.20;0.00;84506.22;5005426;28;20061;-63
2022/12/18 06:16:52;;;;;;;9.38;8.27;;;;;;;13.18;0.00;84508.63;5005466;28;20037;-63
2022/12/18 06:19:20;;;;;;;11.45;8.45;;;;;;;13.20;0.00;84514.78;5004718;28;20050;-64
2022/12/18 06:21:46;;;;;;;10.32;8.20;;;;;;;13.23;0.00;84521.59;5004603;28;20057;-63
2022/12/18 06:24:13;;;;;;;9.93;8.05;;;;;;;13.21;0.00;84515.47;5002846;28;20046;-63
2022/12/18 06:26:41;;;;;;;11.73;8.88;;;;;;;13.21;0.00;84523.31;4988438;28;20040;-63
2022/12/18 06:29:07;;;;;;;11.98;7.65;;;;;;;13.18;0.00;84525.00;5004914;28;20042;-63
2022/12/18 06:31:33;;;;;;;11.40;9.02;;;;;;;13.20;0.00;84527.13;5004999;28;20030;-63
2022/12/18 06:34:02;;;;;;;10.32;8.18;;;;;;;13.19;0.00;84523.09;5005461;28;20037;-63
2022/12/18 06:36:29;;;;;;;11.27;9.13;;;;;;;13.19;0.00;84526.41;5004445;28;20105;-63
2022/12/18 06:38:56;;;;;;;10.90;8.63;;;;;;;13.20;0.00;84527.13;5023386;28;20038;-63
2022/12/18 06:41:24;;;;;;;10.07;8.80;;;;;;;13.20;0.00;84532.34;5007329;28;20049;-63
2022/12/18 06:43:51;;;;;;;11.50;9.10;;;;;;;13.22;0.00;84538.50;5021018;28;20409;-63
2022/12/18 06:46:22;;;;;;;10.23;8.63;;;;;;;13.21;0.00;84533.75;5023426;28;20029;-63
2022/12/18 06:48:50;;;;;;;10.85;8.60;;;;;;;13.22;0.00;84541.09;5007518;28;20030;-63
2022/12/18 06:51:20;;;;;;;10.73;8.20;;;;;;;13.23;0.00;84542.50;4979023;28;20502;-63
2022/12/18 06:53:47;;;;;;;10.18;9.23;;;;;;;13.26;0.00;84540.78;4992377;28;20041;-63
2022/12/18 06:56:13;;;;;;;11.02;8.55;;;;;;;13.25;0.00;84549.84;4968693;28;20038;-63
2022/12/18 06:58:42;;;;;;;11.73;9.38;;;;;;;13.24;0.00;84543.91;5004837;28;20530;-63
2022/12/18 07:01:10;;;;;;;10.80;8.88;;;;;;;13.27;0.00;84547.41;4987377;28;20453;-65
2022/12/18 07:03:40;;;;;;;10.95;9.07;;;;;;;13.26;0.00;84557.16;5000675;28;20041;-64
2022/12/18 07:06:12;;;;;;;9.10;8.07;;;;;;;13.26;0.00;84546.03;4986722;28;20376;-63
2022/12/18 07:08:38;;;;;;;11.23;8.73;;;;;;;13.25;0.00;84560.28;5018137;28;20060;-63
2022/12/18 07:11:04;;;;;;;11.55;8.70;;;;;;;13.26;0.00;84554.56;5002758;28;20034;-63
2022/12/18 07:13:31;;;;;;;10.63;8.68;;;;;;;13.28;0.00;84554.75;5003019;28;20045;-63
2022/12/18 07:16:24;;;;;;;12.63;8.18;;;;;;;13.29;0.00;84556.19;5019147;28;20610;-63
2022/12/18 07:18:50;;;;;;;12.75;10.07;;;;;;;13.28;0.00;84559.97;5001730;28;20396;-64
2022/12/18 07:21:18;;;;;;;14.95;9.27;;;;;;;13.28;0.00;84561.91;5005681;23;20054;-62
2022/12/18 07:23:47;;;;;;;11.82;8.85;;;;;;;13.29;0.00;84558.78;4949264;28;20045;-60
2022/12/18 07:26:15;;;;;;;12.25;8.65;;;;;;;13.30;0.00;84562.09;4966009;28;20068;-60
2022/12/18 07:28:42;;;;;;;10.60;9.48;;;;;;;13.29;0.00;84561.41;4965148;28;20403;-60
2022/12/18 07:31:11;;;;;;;14.05;9.73;;;;;;;13.28;0.00;84559.28;4967979;28;20046;-61
2022/12/18 07:33:41;;;;;;;10.32;8.35;;;;;;;13.28;0.00;84565.22;4955504;28;20030;-61
2022/12/18 07:36:09;;;;;;;12.38;8.38;;;;;;;13.31;0.00;84568.06;4966980;28;20046;-60
2022/12/18 07:38:35;;;;;;;12.15;8.32;;;;;;;13.30;0.00;84569.94;4964178;28;20042;-60
2022/12/18 07:41:07;;;;;;;10.23;9.23;;;;;;;13.29;0.00;84574.47;4949417;28;20034;-60
2022/12/18 07:43:37;;;;;;;9.45;8.05;;;;;;;13.31;0.00;84573.97;4949502;28;20046;-61
2022/12/18 07:46:04;;;;;;;14.02;10.75;;;;;;;13.30;0.00;84572.56;4951172;28;20053;-61
2022/12/18 07:48:33;;;;;;;13.20;9.30;;;;;;;13.33;0.00;84578.72;4984624;28;20050;-61
2022/12/18 07:51:02;;;;;;;11.43;9.07;;;;;;;13.35;0.00;84582.22;4982595;28;20411;-60
2022/12/18 07:53:28;;;;;;;11.95;9.05;;;;;;;13.36;0.00;84581.03;4933116;28;20045;-61
2022/12/18 07:56:24;;;;;;;14.20;10.18;;;;;;;13.38;0.00;84583.84;4965713;28;20041;-60
2022/12/18 07:58:50;;;;;;;11.20;8.85;;;;;;;13.36;0.00;84578.44;4927353;28;20058;-59
2022/12/18 08:01:17;;;;;;;9.80;8.32;;;;;;;13.39;0.00;84580.03;4985719;28;20045;-60
2022/12/18 08:03:45;;;;;;;11.50;8.88;;;;;;;13.38;0.00;84585.78;4971890;28;20669;-60
2022/12/18 08:06:11;;;;;;;10.20;8.75;;;;;;;13.37;0.00;84592.88;4971663;28;20046;-63
2022/12/18 08:08:42;;;;;;;14.18;10.00;;;;;;;13.37;0.00;84587.66;4953853;28;20034;-62
2022/12/18 08:11:10;;;;;;;13.35;10.07;;;;;;;13.36;0.00;84594.09;4970884;28;20034;-60
2022/12/18 08:13:36;;;;;;;13.13;10.77;;;;;;;13.36;0.00;84588.88;4973546;28;20438;-61
2022/12/18 08:16:07;;;;;;;10.90;9.80;;;;;;;13.40;0.00;84586.66;4969686;28;20049;-61
2022/12/18 08:18:37;;;;;;;12.02;10.07;;;;;;;13.41;0.00;84582.16;4968687;28;21811;-62
2022/12/18 08:21:10;;;;;;;11.35;9.20;;;;;;;13.40;0.00;84589.28;4985561;28;20047;-61
2022/12/18 08:23:37;;;;;;;11.05;9.25;;;;;;;13.44;0.00;84592.31;4938317;28;20065;-62
2022/12/18 08:26:03;;;;;;;11.90;9.23;;;;;;;13.43;0.00;84590.91;4948325;28;20042;-61
2022/12/18 08:28:32;;;;;;;13.60;8.75;;;;;;;13.46;0.00;84595.13;4967629;28;20715;-61
2022/12/18 08:30:58;;;;;;;12.35;9.68;;;;;;;13.47;0.00;84586.06;4966009;28;20050;-59
2022/12/18 08:33:26;;;;;;;11.82;8.25;;;;;;;13.50;0.00;84586.28;4951268;28;20026;-60
2022/12/18 08:35:52;;;;;;;12.13;9.50;;;;;;;13.52;0.00;84586.50;4968942;28;20039;-60
2022/12/18 08:38:18;;;;;;;13.07;8.98;;;;;;;13.54;0.00;84599.75;4982317;28;20521;-61
2022/12/18 08:40:45;;;;;;;14.05;9.88;;;;;;;13.54;0.00;84597.16;4968745;28;20047;-59
2022/12/18 08:45:56;;;;;;;11.98;10.63;;;;;;;13.56;0.00;84590.22;4970456;28;20030;-60
2022/12/18 08:48:25;;;;;;;14.05;9.80;;;;;;;13.58;0.00;84584.47;4956462;28;20043;-59
2022/12/18 08:50:58;;;;;;;12.75;9.45;;;;;;;13.56;0.00;84582.38;4983412;28;20038;-60
2022/12/18 08:53:28;;;;;;;11.65;9.27;;;;;;;13.60;0.00;84585.38;4965323;28;20427;-59
2022/12/18 08:55:56;;;;;;;11.25;8.95;;;;;;;13.62;0.00;84579.66;4969710;28;20057;-60
2022/12/18 08:58:22;;;;;;;10.82;9.57;;;;;;;13.63;0.00;84587.00;4953748;28;20049;-59
2022/12/18 09:00:51;;;;;;;10.60;8.55;;;;;;;13.64;0.00;84577.94;4941681;28;20038;-59
2022/12/18 09:03:19;;;;;;;10.80;8.95;;;;;;;13.63;0.00;84578.44;4954393;28;20053;-59
2022/12/18 09:05:46;;;;;;;12.30;9.20;;;;;;;13.66;0.00;84574.81;4989888;28;20046;-59
2022/12/18 09:08:15;;;;;;;10.88;9.48;;;;;;;13.67;0.00;84581.47;4957102;28;20038;-59
2022/12/18 09:10:48;;;;;;;12.02;9.57;;;;;;;13.67;0.00;84576.25;4974998;28;20476;-60
2022/12/18 09:13:15;;;;;;;12.10;9.23;;;;;;;13.71;0.00;84579.25;4969069;28;20027;-60
2022/12/18 09:15:46;;;;;;;9.50;8.35;;;;;;;13.72;0.00;84577.38;4971701;28;20397;-60
2022/12/18 09:18:14;;;;;;;14.63;9.10;;;;;;;13.74;0.00;84565.19;4970029;28;20161;-59
2022/12/18 09:20:40;;;;;;;12.57;8.60;;;;;;;13.77;0.00;84564.19;4956315;28;20038;-59
2022/12/18 09:23:07;;;;;;;11.05;8.65;;;;;;;13.77;0.00;84564.19;4953580;28;20050;-60
2022/12/18 09:25:35;;;;;;;12.63;8.68;;;;;;;13.77;0.00;84574.66;4971703;28;20634;-60
2022/12/18 09:28:03;;;;;;;14.77;10.95;;;;;;;13.77;0.00;84569.41;4953565;28;20037;-60
2022/12/18 09:30:30;;;;;;;15.07;9.35;;;;;;;13.79;0.00;84577.44;4972910;28;20651;-60
2022/12/18 09:32:58;;;;;;;12.38;8.93;;;;;;;13.80;0.00;84578.88;4970646;28;20030;-61
2022/12/18 09:35:27;;;;;;;11.98;9.40;;;;;;;13.81;0.00;84576.94;4955060;28;20038;-60
2022/12/18 09:37:54;;;;;;;12.40;9.60;;;;;;;13.85;0.00;84574.72;4954675;28;20062;-61
2022/12/18 09:40:24;;;;;;;10.27;7.60;;;;;;;13.88;0.00;84578.97;4969067;28;20045;-60
2022/12/18 09:43:03;;;;;;;11.52;9.20;;;;;;;13.91;0.00;84582.50;4957067;28;20046;-60
2022/12/18 09:45:41;;;;;;;11.63;9.23;;;;;;;13.88;0.00;84586.09;4969696;28;20054;-60
2022/12/18 09:48:23;;;;;;;12.30;9.38;;;;;;;13.88;0.00;84594.66;4974087;28;20034;-61
2022/12/18 09:50:53;;;;;;;8.68;7.82;;;;;;;13.91;0.00;84600.81;4957563;28;20053;-61
2022/12/18 09:53:29;;;;;;;10.82;9.10;;;;;;;13.90;0.00;84602.69;4968729;28;20030;-61
2022/12/18 09:56:01;;;;;;;10.55;9.30;;;;;;;13.92;0.00;84610.75;4963727;28;20034;-62
2022/12/18 09:58:39;;;;;;;11.55;8.27;;;;;;;13.95;0.00;84616.88;4965422;28;20038;-62
2022/12/18 10:01:16;;;;;;;8.48;7.70;;;;;;;13.96;0.00;84605.22;4970297;28;20435;-61
2022/12/18 10:03:48;;;;;;;11.63;9.30;;;;;;;13.97;0.00;84612.56;4964551;28;20057;-64
2022/12/18 10:06:17;;;;;;;11.60;9.25;;;;;;;13.99;0.00;84618.00;4976276;28;20057;-62
2022/12/18 10:08:53;;;;;;;12.02;8.43;;;;;;;13.98;0.00;84621.13;4973538;28;20410;-63
2022/12/18 10:11:45;;;;;;;11.20;8.82;;;;;;;14.02;0.00;84624.13;4970326;28;20045;-63
2022/12/18 10:14:20;;;;;;;14.93;9.70;;;;;;;14.03;0.00;84628.16;4969232;28;20034;-63
2022/12/18 10:17:05;;;;;;;12.20;8.45;;;;;;;14.05;0.00;84623.13;4953198;28;20050;-64
2022/12/18 10:19:52;;;;;;;14.32;9.25;;;;;;;14.07;0.00;84612.84;4958701;28;20042;-62
2022/12/18 10:22:24;;;;;;;15.90;9.25;;;;;;;14.06;0.00;84603.63;4989573;28;20053;-61
2022/12/18 10:25:03;;;;;;;10.55;8.63;;;;;;;14.07;0.00;84599.78;4943706;28;20045;-61
2022/12/18 10:27:35;;;;;;;10.40;8.95;;;;;;;14.07;0.00;84605.00;4953729;28;20042;-61
2022/12/18 10:30:12;;;;;;;10.05;8.15;;;;;;;14.10;0.00;84608.53;4979178;28;20403;-61
2022/12/18 10:32:39;;;;;;;11.73;8.93;;;;;;;14.13;0.00;84612.78;4968586;28;20053;-61
2022/12/18 10:35:17;;;;;;;12.60;8.23;;;;;;;14.13;0.00;84613.47;4978513;28;20037;-61
2022/12/18 10:38:26;;;;;;;10.13;8.15;;;;;;;14.13;0.00;84608.22;4970943;28;20724;-61
2022/12/18 10:40:59;;;;;;;11.10;9.68;;;;;;;14.17;0.00;84615.78;4893036;29;20036;-62
2022/12/18 10:43:36;;;;;;;9.70;8.20;;;;;;;14.21;0.00;84611.66;4894926;29;20044;-62
2022/12/18 10:46:02;;;;;;;11.30;8.43;;;;;;;14.26;0.00;84609.44;4921381;28;20070;-62
2022/12/18 10:48:33;;;;;;;10.75;8.05;;;;;;;14.42;0.00;84611.03;4975123;28;20041;-62
2022/12/18 10:50:59;;;;;;;9.25;6.90;;;;;;;14.82;0.00;84597.84;4957909;28;20438;-61
2022/12/18 10:53:28;;;;;;;10.98;8.68;;;;;;;14.52;0.00;84585.84;4969685;28;20045;-62
2022/12/18 10:56:02;;;;;;;14.73;8.85;;;;;;;14.39;0.00;84581.31;4951482;28;20053;-62
2022/12/18 10:58:36;;;;;;;10.85;7.90;;;;;;;14.35;0.00;84575.69;4975227;28;20057;-62
2022/12/18 11:01:04;;;;;;;11.27;9.10;;;;;;;14.34;0.00;84574.28;4976220;28;20042;-62
2022/12/18 11:03:39;;;;;;;14.25;8.25;;;;;;;14.36;0.00;84584.25;4962481;28;20054;-63
2022/12/18 11:06:17;;;;;;;10.70;8.45;;;;;;;14.36;0.00;84584.25;4966178;28;20034;-62
2022/12/18 11:08:57;;;;;;;10.13;7.03;;;;;;;14.38;0.00;84581.81;4971134;28;20045;-63
2022/12/18 11:11:27;;;;;;;10.88;8.38;;;;;;;14.40;0.00;84576.81;4971729;28;20042;-62
2022/12/18 11:14:19;;;;;;;12.43;9.02;;;;;;;14.36;0.00;84581.63;4965192;28;20042;-63
2022/12/18 11:16:50;;;;;;;13.02;8.02;;;;;;;14.41;0.00;84584.13;4966765;28;20045;-62
2022/12/18 11:19:36;;;;;;;11.18;9.23;;;;;;;14.39;0.00;84578.00;4982104;28;20061;-63
2022/12/18 11:22:19;;;;;;;13.30;7.75;;;;;;;14.45;0.00;84573.38;4984439;28;20046;-63
2022/12/18 11:24:54;;;;;;;12.27;8.75;;;;;;;14.45;0.00;84586.47;4962837;28;20041;-63
2022/12/18 11:27:21;;;;;;;10.25;7.68;;;;;;;14.45;0.00;84586.47;4987155;28;20042;-62
2022/12/18 11:29:49;;;;;;;11.32;9.27;;;;;;;14.47;0.00;84580.72;4955443;28;20042;-62
2022/12/18 11:32:38;;;;;;;11.07;8.77;;;;;;;14.51;0.00;84589.66;4973899;28;20054;-63
2022/12/18 11:35:17;;;;;;;9.45;7.40;;;;;;;14.49;0.00;84586.84;4976502;28;20045;-63
2022/12/18 11:37:50;;;;;;;13.70;9.10;;;;;;;14.52;0.00;84598.94;4981043;28;20057;-63
2022/12/18 11:40:27;;;;;;;11.88;9.57;;;;;;;14.54;0.00;84593.88;4982849;28;20041;-62
2022/12/18 11:43:14;;;;;;;9.07;7.90;;;;;;;14.54;0.00;84580.09;4973620;28;20426;-63
2022/12/18 11:45:53;;;;;;;11.40;8.38;;;;;;;14.57;0.00;84585.00;4956692;28;20046;-63
2022/12/18 11:48:25;;;;;;;10.90;8.35;;;;;;;14.57;0.00;84585.00;4993100;28;20030;-63
2022/12/18 11:50:56;;;;;;;9.60;7.57;;;;;;;14.57;0.00;84579.78;4997063;28;20041;-63
2022/12/18 11:53:27;;;;;;;8.30;7.05;;;;;;;14.56;0.00;84573.13;4976505;28;20066;-64
2022/12/18 11:56:02;;;;;;;11.43;8.80;;;;;;;14.58;0.00;84568.09;4995202;28;20042;-63
2022/12/18 11:58:45;;;;;;;11.30;8.07;;;;;;;14.59;0.00;84574.06;4957351;28;20045;-62